sensor_id;sensor_type;location;lat;lon;timestamp;pressure;altitude;pressure_sealevel;temperature;humidity
51926;BME280;37952;51.938;15.480;2023-06-14T00:01:00;99959.20;;;13.47;55.36
51926;BME280;37952;51.938;15.480;2023-06-14T00:04:17;99958.88;;;13.41;55.59
51926;BME280;37952;51.938;15.480;2023-06-14T00:07:33;99963.14;;;13.38;55.65
51926;BME280;37952;51.938;15.480;2023-06-14T00:10:36;99964.55;;;13.36;56.03
51926;BME280;37952;51.938;15.480;2023-06-14T00:13:39;99965.40;;;13.34;55.95
51926;BME280;37952;51.938;15.480;2023-06-14T00:16:43;99965.40;;;13.31;56.06
51926;BME280;37952;51.938;15.480;2023-06-14T00:19:45;99966.94;;;13.30;56.22
51926;BME280;37952;51.938;15.480;2023-06-14T00:22:49;99965.27;;;13.28;56.27
51926;BME280;37952;51.938;15.480;2023-06-14T00:25:52;99962.21;;;13.26;56.38
51926;BME280;37952;51.938;15.480;2023-06-14T00:28:55;99961.80;;;13.24;56.49
51926;BME280;37952;51.938;15.480;2023-06-14T00:31:59;99958.95;;;13.22;56.72
51926;BME280;37952;51.938;15.480;2023-06-14T00:35:02;99953.66;;;13.19;56.63
51926;BME280;37952;51.938;15.480;2023-06-14T00:38:05;99954.74;;;13.19;56.74
51926;BME280;37952;51.938;15.480;2023-06-14T00:41:08;99952.01;;;13.17;56.98
51926;BME280;37952;51.938;15.480;2023-06-14T00:44:11;99946.54;;;13.14;57.21
51926;BME280;37952;51.938;15.480;2023-06-14T00:47:15;99947.27;;;13.11;57.26
51926;BME280;37952;51.938;15.480;2023-06-14T00:50:20;99945.88;;;13.08;57.61
51926;BME280;37952;51.938;15.480;2023-06-14T00:53:23;99947.56;;;13.07;57.50
51926;BME280;37952;51.938;15.480;2023-06-14T00:56:27;99949.59;;;13.03;57.75
51926;BME280;37952;51.938;15.480;2023-06-14T00:59:31;99952.64;;;13.00;57.62
51926;BME280;37952;51.938;15.480;2023-06-14T01:02:35;99952.09;;;13.00;57.80
51926;BME280;37952;51.938;15.480;2023-06-14T01:05:39;99952.29;;;12.97;57.85
51926;BME280;37952;51.938;15.480;2023-06-14T01:12:11;99953.92;;;12.89;57.84
51926;BME280;37952;51.938;15.480;2023-06-14T01:15:16;99952.73;;;12.85;58.23
51926;BME280;37952;51.938;15.480;2023-06-14T01:18:20;99946.59;;;12.82;58.40
51926;BME280;37952;51.938;15.480;2023-06-14T01:21:24;99950.20;;;12.86;58.37
51926;BME280;37952;51.938;15.480;2023-06-14T01:24:27;99943.10;;;12.86;58.37
51926;BME280;37952;51.938;15.480;2023-06-14T01:27:35;99945.98;;;12.86;58.40
51926;BME280;37952;51.938;15.480;2023-06-14T01:30:40;99939.56;;;12.84;58.53
51926;BME280;37952;51.938;15.480;2023-06-14T01:33:49;99933.11;;;12.82;58.64
51926;BME280;37952;51.938;15.480;2023-06-14T01:36:53;99932.21;;;12.83;58.93
51926;BME280;37952;51.938;15.480;2023-06-14T01:39:59;99925.00;;;12.82;59.00
51926;BME280;37952;51.938;15.480;2023-06-14T01:43:03;99924.44;;;12.80;58.90
51926;BME280;37952;51.938;15.480;2023-06-14T01:46:08;99936.40;;;12.81;59.19
51926;BME280;37952;51.938;15.480;2023-06-14T01:49:12;99938.38;;;12.80;59.09
51926;BME280;37952;51.938;15.480;2023-06-14T01:52:15;99940.38;;;12.80;59.01
51926;BME280;37952;51.938;15.480;2023-06-14T01:55:18;99940.84;;;12.81;59.49
51926;BME280;37952;51.938;15.480;2023-06-14T01:58:21;99938.59;;;12.83;59.47
51926;BME280;37952;51.938;15.480;2023-06-14T02:01:24;99934.26;;;12.84;59.45
51926;BME280;37952;51.938;15.480;2023-06-14T02:04:27;99939.14;;;12.85;59.34
51926;BME280;37952;51.938;15.480;2023-06-14T02:07:30;99934.20;;;12.82;59.43
51926;BME280;37952;51.938;15.480;2023-06-14T02:10:33;99937.89;;;12.80;59.46
51926;BME280;37952;51.938;15.480;2023-06-14T02:13:38;99946.52;;;12.77;59.56
51926;BME280;37952;51.938;15.480;2023-06-14T02:16:40;99947.75;;;12.75;59.66
51926;BME280;37952;51.938;15.480;2023-06-14T02:19:51;99943.98;;;12.73;59.75
51926;BME280;37952;51.938;15.480;2023-06-14T02:22:54;99946.66;;;12.70;59.47
51926;BME280;37952;51.938;15.480;2023-06-14T02:25:57;99949.01;;;12.70;60.24
51926;BME280;37952;51.938;15.480;2023-06-14T02:29:00;99950.43;;;12.70;60.24
51926;BME280;37952;51.938;15.480;2023-06-14T02:32:06;99944.39;;;12.70;60.23
51926;BME280;37952;51.938;15.480;2023-06-14T02:35:13;99944.29;;;12.71;60.12
51926;BME280;37952;51.938;15.480;2023-06-14T02:38:16;99947.74;;;12.73;60.17
51926;BME280;37952;51.938;15.480;2023-06-14T02:41:18;99952.44;;;12.74;60.20
51926;BME280;37952;51.938;15.480;2023-06-14T02:44:25;99953.50;;;12.76;60.47
51926;BME280;37952;51.938;15.480;2023-06-14T02:47:29;99952.53;;;12.77;60.41
51926;BME280;37952;51.938;15.480;2023-06-14T02:50:32;99950.70;;;12.76;60.39
51926;BME280;37952;51.938;15.480;2023-06-14T02:53:35;99956.30;;;12.82;61.02
51926;BME280;37952;51.938;15.480;2023-06-14T02:56:39;99957.63;;;12.86;60.87
51926;BME280;37952;51.938;15.480;2023-06-14T02:59:42;99957.64;;;12.88;60.91
51926;BME280;37952;51.938;15.480;2023-06-14T03:02:44;99953.55;;;12.92;60.84
51926;BME280;37952;51.938;15.480;2023-06-14T03:05:49;99948.21;;;12.95;60.73
51926;BME280;37952;51.938;15.480;2023-06-14T03:08:52;99943.33;;;12.97;60.76
51926;BME280;37952;51.938;15.480;2023-06-14T03:11:57;99944.58;;;12.99;60.75
51926;BME280;37952;51.938;15.480;2023-06-14T03:15:00;99945.25;;;12.99;60.84
51926;BME280;37952;51.938;15.480;2023-06-14T03:18:08;99945.21;;;13.00;60.81
51926;BME280;37952;51.938;15.480;2023-06-14T03:21:11;99944.27;;;13.03;61.20
51926;BME280;37952;51.938;15.480;2023-06-14T03:24:15;99950.14;;;13.08;61.31
51926;BME280;37952;51.938;15.480;2023-06-14T03:27:19;99950.08;;;13.11;61.23
51926;BME280;37952;51.938;15.480;2023-06-14T03:30:22;99950.61;;;13.14;61.08
51926;BME280;37952;51.938;15.480;2023-06-14T03:33:25;99956.45;;;13.14;61.16
51926;BME280;37952;51.938;15.480;2023-06-14T03:36:32;99956.88;;;13.13;61.04
51926;BME280;37952;51.938;15.480;2023-06-14T03:39:36;99963.07;;;13.13;61.26
51926;BME280;37952;51.938;15.480;2023-06-14T03:42:39;99961.63;;;13.14;61.27
51926;BME280;37952;51.938;15.480;2023-06-14T03:45:42;99964.13;;;13.13;61.43
51926;BME280;37952;51.938;15.480;2023-06-14T03:48:45;99959.75;;;13.15;61.86
51926;BME280;37952;51.938;15.480;2023-06-14T03:51:49;99962.40;;;13.18;61.76
51926;BME280;37952;51.938;15.480;2023-06-14T03:54:54;99960.92;;;13.19;61.52
51926;BME280;37952;51.938;15.480;2023-06-14T03:58:16;99967.55;;;13.21;61.48
51926;BME280;37952;51.938;15.480;2023-06-14T04:01:19;99966.70;;;13.22;61.49
51926;BME280;37952;51.938;15.480;2023-06-14T04:04:22;99964.94;;;13.23;61.44
51926;BME280;37952;51.938;15.480;2023-06-14T04:07:32;99970.44;;;13.22;61.42
51926;BME280;37952;51.938;15.480;2023-06-14T04:10:35;99968.67;;;13.22;61.44
51926;BME280;37952;51.938;15.480;2023-06-14T04:13:37;99965.42;;;13.20;61.44
51926;BME280;37952;51.938;15.480;2023-06-14T04:16:41;99963.21;;;13.22;61.82
51926;BME280;37952;51.938;15.480;2023-06-14T04:19:44;99964.86;;;13.24;61.88
51926;BME280;37952;51.938;15.480;2023-06-14T04:22:47;99968.09;;;13.26;61.91
51926;BME280;37952;51.938;15.480;2023-06-14T04:25:51;99973.91;;;13.29;61.77
51926;BME280;37952;51.938;15.480;2023-06-14T04:28:56;99970.19;;;13.31;61.86
51926;BME280;37952;51.938;15.480;2023-06-14T04:31:59;99973.86;;;13.32;61.76
51926;BME280;37952;51.938;15.480;2023-06-14T04:35:02;99978.00;;;13.31;61.82
51926;BME280;37952;51.938;15.480;2023-06-14T04:38:06;99977.20;;;13.30;61.87
51926;BME280;37952;51.938;15.480;2023-06-14T04:41:12;99978.51;;;13.31;62.11
51926;BME280;37952;51.938;15.480;2023-06-14T04:44:15;99982.09;;;13.33;62.10
51926;BME280;37952;51.938;15.480;2023-06-14T04:47:19;99982.14;;;13.35;62.07
51926;BME280;37952;51.938;15.480;2023-06-14T04:50:23;99977.52;;;13.35;62.00
51926;BME280;37952;51.938;15.480;2023-06-14T04:53:26;99978.22;;;13.35;62.04
51926;BME280;37952;51.938;15.480;2023-06-14T04:56:31;99976.01;;;13.34;62.03
51926;BME280;37952;51.938;15.480;2023-06-14T04:59:34;99980.59;;;13.37;62.15
51926;BME280;37952;51.938;15.480;2023-06-14T05:02:38;99975.95;;;13.40;62.55
51926;BME280;37952;51.938;15.480;2023-06-14T05:05:41;99977.95;;;13.42;62.79
51926;BME280;37952;51.938;15.480;2023-06-14T05:08:44;99980.99;;;13.44;62.82
51926;BME280;37952;51.938;15.480;2023-06-14T05:11:47;99981.70;;;13.47;62.89
51926;BME280;37952;51.938;15.480;2023-06-14T05:14:50;99977.30;;;13.49;63.10
51926;BME280;37952;51.938;15.480;2023-06-14T05:17:53;99971.51;;;13.56;63.59
51926;BME280;37952;51.938;15.480;2023-06-14T05:20:58;99965.41;;;13.62;63.62
51926;BME280;37952;51.938;15.480;2023-06-14T05:24:00;99965.06;;;13.67;63.68
51926;BME280;37952;51.938;15.480;2023-06-14T05:27:04;99969.56;;;13.71;63.56
51926;BME280;37952;51.938;15.480;2023-06-14T05:30:08;99974.64;;;13.75;63.54
51926;BME280;37952;51.938;15.480;2023-06-14T05:33:11;99984.45;;;13.82;63.79
51926;BME280;37952;51.938;15.480;2023-06-14T05:36:20;99987.48;;;13.92;64.36
51926;BME280;37952;51.938;15.480;2023-06-14T05:39:23;99983.80;;;14.01;64.19
51926;BME280;37952;51.938;15.480;2023-06-14T05:42:26;99992.11;;;14.09;64.10
51926;BME280;37952;51.938;15.480;2023-06-14T05:45:29;99991.21;;;14.13;64.07
51926;BME280;37952;51.938;15.480;2023-06-14T05:48:32;99991.28;;;14.18;63.86
51926;BME280;37952;51.938;15.480;2023-06-14T05:51:35;99998.48;;;14.22;64.06
51926;BME280;37952;51.938;15.480;2023-06-14T05:54:38;100000.27;;;14.23;64.24
51926;BME280;37952;51.938;15.480;2023-06-14T05:57:41;99999.92;;;14.26;64.22
51926;BME280;37952;51.938;15.480;2023-06-14T06:00:44;100004.36;;;14.29;64.14
51926;BME280;37952;51.938;15.480;2023-06-14T06:03:47;100006.07;;;14.30;63.87
51926;BME280;37952;51.938;15.480;2023-06-14T06:06:50;100011.54;;;14.30;64.02
51926;BME280;37952;51.938;15.480;2023-06-14T06:09:53;100014.23;;;14.29;63.97
51926;BME280;37952;51.938;15.480;2023-06-14T06:12:56;100007.28;;;14.27;64.23
51926;BME280;37952;51.938;15.480;2023-06-14T06:15:59;100001.75;;;14.28;64.67
51926;BME280;37952;51.938;15.480;2023-06-14T06:19:02;99999.64;;;14.30;64.47
51926;BME280;37952;51.938;15.480;2023-06-14T06:22:04;100003.16;;;14.33;64.48
51926;BME280;37952;51.938;15.480;2023-06-14T06:25:09;100008.86;;;14.35;64.37
51926;BME280;37952;51.938;15.480;2023-06-14T06:28:12;100010.61;;;14.38;64.41
51926;BME280;37952;51.938;15.480;2023-06-14T06:31:15;100012.29;;;14.39;64.42
51926;BME280;37952;51.938;15.480;2023-06-14T06:34:17;100013.23;;;14.43;64.68
51926;BME280;37952;51.938;15.480;2023-06-14T06:37:20;100017.06;;;14.47;64.67
51926;BME280;37952;51.938;15.480;2023-06-14T06:40:23;100019.63;;;14.50;64.64
51926;BME280;37952;51.938;15.480;2023-06-14T06:43:26;100027.45;;;14.55;64.65
51926;BME280;37952;51.938;15.480;2023-06-14T06:46:28;100028.14;;;14.58;64.61
51926;BME280;37952;51.938;15.480;2023-06-14T06:49:31;100032.02;;;14.63;64.75
51926;BME280;37952;51.938;15.480;2023-06-14T06:52:34;100030.23;;;14.71;65.09
51926;BME280;37952;51.938;15.480;2023-06-14T06:55:37;100033.56;;;14.79;64.97
51926;BME280;37952;51.938;15.480;2023-06-14T06:58:40;100031.58;;;14.89;64.81
51926;BME280;37952;51.938;15.480;2023-06-14T07:01:43;100032.95;;;14.97;64.65
51926;BME280;37952;51.938;15.480;2023-06-14T07:04:46;100032.76;;;15.04;64.58
51926;BME280;37952;51.938;15.480;2023-06-14T07:07:49;100033.78;;;15.12;64.50
51926;BME280;37952;51.938;15.480;2023-06-14T07:10:51;100033.94;;;15.19;64.72
51926;BME280;37952;51.938;15.480;2023-06-14T07:13:54;100039.76;;;15.30;64.88
51926;BME280;37952;51.938;15.480;2023-06-14T07:16:57;100045.84;;;15.39;64.75
51926;BME280;37952;51.938;15.480;2023-06-14T07:20:02;100048.65;;;15.48;64.41
51926;BME280;37952;51.938;15.480;2023-06-14T07:23:14;100047.41;;;15.55;64.22
51926;BME280;37952;51.938;15.480;2023-06-14T07:26:17;100052.02;;;15.60;64.06
51926;BME280;37952;51.938;15.480;2023-06-14T07:29:20;100045.79;;;15.65;63.95
51926;BME280;37952;51.938;15.480;2023-06-14T07:32:23;100045.94;;;15.70;63.87
51926;BME280;37952;51.938;15.480;2023-06-14T07:35:26;100038.99;;;15.77;64.13
51926;BME280;37952;51.938;15.480;2023-06-14T07:38:29;100035.98;;;15.86;64.20
51926;BME280;37952;51.938;15.480;2023-06-14T07:41:32;100040.89;;;15.94;63.97
51926;BME280;37952;51.938;15.480;2023-06-14T07:44:35;100042.91;;;16.00;63.67
51926;BME280;37952;51.938;15.480;2023-06-14T07:47:39;100039.83;;;16.06;63.37
51926;BME280;37952;51.938;15.480;2023-06-14T07:50:42;100042.29;;;16.15;63.33
51926;BME280;37952;51.938;15.480;2023-06-14T07:53:45;100046.73;;;16.24;63.06
51926;BME280;37952;51.938;15.480;2023-06-14T07:56:48;100044.64;;;16.30;62.87
51926;BME280;37952;51.938;15.480;2023-06-14T07:59:52;100043.67;;;16.33;62.71
51926;BME280;37952;51.938;15.480;2023-06-14T08:02:55;100044.65;;;16.37;62.96
51926;BME280;37952;51.938;15.480;2023-06-14T08:06:03;100046.90;;;16.40;62.56
51926;BME280;37952;51.938;15.480;2023-06-14T08:09:07;100046.77;;;16.39;62.50
51926;BME280;37952;51.938;15.480;2023-06-14T08:12:10;100052.02;;;16.36;62.24
51926;BME280;37952;51.938;15.480;2023-06-14T08:15:12;100049.77;;;16.30;62.15
51926;BME280;37952;51.938;15.480;2023-06-14T08:18:16;100052.10;;;16.26;62.12
51926;BME280;37952;51.938;15.480;2023-06-14T08:21:19;100050.95;;;16.20;62.02
51926;BME280;37952;51.938;15.480;2023-06-14T08:24:22;100051.23;;;16.14;62.00
51926;BME280;37952;51.938;15.480;2023-06-14T08:27:30;100050.89;;;16.07;61.89
51926;BME280;37952;51.938;15.480;2023-06-14T08:30:32;100046.24;;;16.03;62.43
51926;BME280;37952;51.938;15.480;2023-06-14T08:33:35;100056.33;;;16.06;62.33
51926;BME280;37952;51.938;15.480;2023-06-14T08:36:38;100060.61;;;16.10;62.27
51926;BME280;37952;51.938;15.480;2023-06-14T08:39:41;100064.73;;;16.15;62.39
51926;BME280;37952;51.938;15.480;2023-06-14T08:42:44;100065.60;;;16.17;62.18
51926;BME280;37952;51.938;15.480;2023-06-14T08:45:53;100056.65;;;16.25;62.24
51926;BME280;37952;51.938;15.480;2023-06-14T08:49:02;100049.09;;;16.37;62.09
51926;BME280;37952;51.938;15.480;2023-06-14T08:52:08;100053.13;;;16.49;62.08
51926;BME280;37952;51.938;15.480;2023-06-14T08:55:13;100059.55;;;16.62;62.09
51926;BME280;37952;51.938;15.480;2023-06-14T08:58:17;100057.06;;;16.71;61.85
51926;BME280;37952;51.938;15.480;2023-06-14T09:01:22;100057.60;;;16.79;61.45
51926;BME280;37952;51.938;15.480;2023-06-14T09:04:25;100057.14;;;16.85;61.15
51926;BME280;37952;51.938;15.480;2023-06-14T09:07:32;100055.95;;;16.89;60.83
51926;BME280;37952;51.938;15.480;2023-06-14T09:10:35;100055.95;;;16.91;60.71
51926;BME280;37952;51.938;15.480;2023-06-14T09:13:41;100050.98;;;16.93;60.58
51926;BME280;37952;51.938;15.480;2023-06-14T09:16:44;100058.60;;;16.98;60.53
51926;BME280;37952;51.938;15.480;2023-06-14T09:19:48;100065.17;;;17.04;60.54
51926;BME280;37952;51.938;15.480;2023-06-14T09:22:50;100064.91;;;17.11;60.43
51926;BME280;37952;51.938;15.480;2023-06-14T09:25:54;100065.11;;;17.14;60.30
51926;BME280;37952;51.938;15.480;2023-06-14T09:28:57;100065.56;;;17.17;60.24
51926;BME280;37952;51.938;15.480;2023-06-14T09:32:00;100063.73;;;17.20;60.11
51926;BME280;37952;51.938;15.480;2023-06-14T09:35:03;100064.07;;;17.23;60.03
51926;BME280;37952;51.938;15.480;2023-06-14T09:38:07;100067.50;;;17.26;60.05
51926;BME280;37952;51.938;15.480;2023-06-14T09:41:10;100067.15;;;17.30;59.90
51926;BME280;37952;51.938;15.480;2023-06-14T09:44:12;100063.20;;;17.35;59.67
51926;BME280;37952;51.938;15.480;2023-06-14T09:47:23;100058.11;;;17.39;59.73
51926;BME280;37952;51.938;15.480;2023-06-14T09:50:27;100059.50;;;17.43;59.63
51926;BME280;37952;51.938;15.480;2023-06-14T09:53:30;100062.36;;;17.45;59.61
51926;BME280;37952;51.938;15.480;2023-06-14T09:56:45;100066.43;;;17.48;59.49
51926;BME280;37952;51.938;15.480;2023-06-14T09:59:48;100072.14;;;17.47;59.41
51926;BME280;37952;51.938;15.480;2023-06-14T10:02:58;100072.11;;;17.48;59.22
51926;BME280;37952;51.938;15.480;2023-06-14T10:06:05;100068.77;;;17.49;59.19
51926;BME280;37952;51.938;15.480;2023-06-14T10:09:10;100065.60;;;17.49;59.20
51926;BME280;37952;51.938;15.480;2023-06-14T10:12:14;100063.06;;;17.50;59.00
51926;BME280;37952;51.938;15.480;2023-06-14T10:15:42;100065.90;;;17.54;59.15
51926;BME280;37952;51.938;15.480;2023-06-14T10:22:06;100074.69;;;17.68;59.04
51926;BME280;37952;51.938;15.480;2023-06-14T10:25:26;100076.61;;;17.75;58.92
51926;BME280;37952;51.938;15.480;2023-06-14T10:28:29;100072.27;;;17.79;58.65
51926;BME280;37952;51.938;15.480;2023-06-14T10:31:40;100065.84;;;17.80;58.88
51926;BME280;37952;51.938;15.480;2023-06-14T10:34:45;100061.52;;;17.89;58.55
51926;BME280;37952;51.938;15.480;2023-06-14T10:37:47;100058.05;;;17.96;58.46
51926;BME280;37952;51.938;15.480;2023-06-14T10:40:55;100056.32;;;18.06;58.51
51926;BME280;37952;51.938;15.480;2023-06-14T10:47:33;100057.21;;;18.30;58.16
51926;BME280;37952;51.938;15.480;2023-06-14T10:50:41;100044.91;;;18.47;58.03
51926;BME280;37952;51.938;15.480;2023-06-14T10:53:48;100042.63;;;18.61;57.89
51926;BME280;37952;51.938;15.480;2023-06-14T10:56:52;100035.66;;;18.70;57.65
51926;BME280;37952;51.938;15.480;2023-06-14T10:59:55;100034.96;;;18.76;57.46
51926;BME280;37952;51.938;15.480;2023-06-14T11:06:14;100031.53;;;18.90;57.20
51926;BME280;37952;51.938;15.480;2023-06-14T11:13:11;100039.24;;;19.00;56.89
51926;BME280;37952;51.938;15.480;2023-06-14T11:16:17;100037.98;;;19.02;56.67
51926;BME280;37952;51.938;15.480;2023-06-14T11:19:22;100029.47;;;19.03;56.52
51926;BME280;37952;51.938;15.480;2023-06-14T11:22:24;100021.70;;;19.02;56.38
51926;BME280;37952;51.938;15.480;2023-06-14T11:25:28;100018.52;;;19.00;56.18
51926;BME280;37952;51.938;15.480;2023-06-14T11:28:40;100025.67;;;18.98;56.22
51926;BME280;37952;51.938;15.480;2023-06-14T11:31:44;100023.90;;;18.98;56.04
51926;BME280;37952;51.938;15.480;2023-06-14T11:34:48;100019.84;;;18.99;56.04
51926;BME280;37952;51.938;15.480;2023-06-14T11:37:55;100020.54;;;19.05;56.09
51926;BME280;37952;51.938;15.480;2023-06-14T11:40:59;100014.75;;;19.14;56.02
51926;BME280;37952;51.938;15.480;2023-06-14T11:44:03;100018.07;;;19.19;55.83
51926;BME280;37952;51.938;15.480;2023-06-14T11:47:06;100015.44;;;19.22;55.60
51926;BME280;37952;51.938;15.480;2023-06-14T11:50:09;100015.61;;;19.24;55.45
51926;BME280;37952;51.938;15.480;2023-06-14T11:53:13;100016.42;;;19.27;55.40
51926;BME280;37952;51.938;15.480;2023-06-14T11:56:16;100012.87;;;19.33;55.44
51926;BME280;37952;51.938;15.480;2023-06-14T11:59:20;100009.59;;;19.41;55.36
51926;BME280;37952;51.938;15.480;2023-06-14T12:02:23;100009.14;;;19.52;55.20
51926;BME280;37952;51.938;15.480;2023-06-14T12:05:28;100003.81;;;19.63;55.01
51926;BME280;37952;51.938;15.480;2023-06-14T12:08:38;99999.29;;;19.73;54.92
51926;BME280;37952;51.938;15.480;2023-06-14T12:11:44;99997.57;;;19.84;54.64
51926;BME280;37952;51.938;15.480;2023-06-14T12:14:47;99994.98;;;19.92;54.34
51926;BME280;37952;51.938;15.480;2023-06-14T12:17:49;99988.95;;;20.00;54.16
51926;BME280;37952;51.938;15.480;2023-06-14T12:20:53;99992.67;;;20.05;53.96
51926;BME280;37952;51.938;15.480;2023-06-14T12:23:56;99994.10;;;20.09;53.96
51926;BME280;37952;51.938;15.480;2023-06-14T12:26:59;99993.48;;;20.10;53.73
51926;BME280;37952;51.938;15.480;2023-06-14T12:30:06;99985.67;;;20.07;53.34
51926;BME280;37952;51.938;15.480;2023-06-14T12:33:10;99982.88;;;20.07;53.46
51926;BME280;37952;51.938;15.480;2023-06-14T12:36:19;99987.64;;;20.07;53.31
51926;BME280;37952;51.938;15.480;2023-06-14T12:39:22;99985.34;;;20.07;53.27
51926;BME280;37952;51.938;15.480;2023-06-14T12:42:25;99991.49;;;20.06;53.27
51926;BME280;37952;51.938;15.480;2023-06-14T12:45:28;99993.23;;;20.03;53.28
51926;BME280;37952;51.938;15.480;2023-06-14T12:48:31;99993.23;;;20.05;53.53
51926;BME280;37952;51.938;15.480;2023-06-14T12:51:34;99991.34;;;20.15;53.60
51926;BME280;37952;51.938;15.480;2023-06-14T12:54:37;99993.54;;;20.33;53.48
51926;BME280;37952;51.938;15.480;2023-06-14T12:57:43;99990.54;;;20.49;53.25
51926;BME280;37952;51.938;15.480;2023-06-14T13:00:46;99983.93;;;20.62;52.73
51926;BME280;37952;51.938;15.480;2023-06-14T13:03:49;99983.96;;;20.72;52.54
51926;BME280;37952;51.938;15.480;2023-06-14T13:06:54;99978.52;;;20.82;52.04
51926;BME280;37952;51.938;15.480;2023-06-14T13:09:57;99981.39;;;20.91;51.75
51926;BME280;37952;51.938;15.480;2023-06-14T13:12:59;99980.41;;;21.05;51.54
51926;BME280;37952;51.938;15.480;2023-06-14T13:16:02;99975.45;;;21.22;51.03
51926;BME280;37952;51.938;15.480;2023-06-14T13:19:05;99979.08;;;21.50;50.73
51926;BME280;37952;51.938;15.480;2023-06-14T13:22:08;99969.02;;;21.71;50.18
51926;BME280;37952;51.938;15.480;2023-06-14T13:25:11;99964.14;;;21.90;49.96
51926;BME280;37952;51.938;15.480;2023-06-14T13:28:14;99963.81;;;22.06;49.75
51926;BME280;37952;51.938;15.480;2023-06-14T13:31:16;99958.23;;;22.22;48.93
51926;BME280;37952;51.938;15.480;2023-06-14T13:34:19;99954.29;;;22.43;48.63
51926;BME280;37952;51.938;15.480;2023-06-14T13:37:22;99953.98;;;22.68;48.68
51926;BME280;37952;51.938;15.480;2023-06-14T13:40:25;99946.39;;;22.95;47.80
51926;BME280;37952;51.938;15.480;2023-06-14T13:43:28;99949.61;;;23.21;47.53
51926;BME280;37952;51.938;15.480;2023-06-14T13:46:31;99944.81;;;23.42;47.11
51926;BME280;37952;51.938;15.480;2023-06-14T13:49:34;99938.91;;;23.56;46.65
51926;BME280;37952;51.938;15.480;2023-06-14T13:52:37;99940.23;;;23.57;46.52
51926;BME280;37952;51.938;15.480;2023-06-14T13:55:40;99936.73;;;23.61;46.32
51926;BME280;37952;51.938;15.480;2023-06-14T13:58:43;99937.31;;;23.74;45.78
51926;BME280;37952;51.938;15.480;2023-06-14T14:01:46;99933.06;;;23.94;44.86
51926;BME280;37952;51.938;15.480;2023-06-14T14:04:50;99930.98;;;24.11;45.05
51926;BME280;37952;51.938;15.480;2023-06-14T14:07:56;99932.36;;;24.11;44.56
51926;BME280;37952;51.938;15.480;2023-06-14T14:10:59;99931.80;;;24.00;44.01
51926;BME280;37952;51.938;15.480;2023-06-14T14:14:02;99923.01;;;23.89;43.99
51926;BME280;37952;51.938;15.480;2023-06-14T14:17:05;99922.35;;;23.83;44.09
51926;BME280;37952;51.938;15.480;2023-06-14T14:20:09;99923.91;;;23.82;43.73
51926;BME280;37952;51.938;15.480;2023-06-14T14:23:15;99924.74;;;23.78;43.73
51926;BME280;37952;51.938;15.480;2023-06-14T14:26:19;99928.30;;;23.75;43.63
51926;BME280;37952;51.938;15.480;2023-06-14T14:29:21;99928.98;;;23.69;43.65
51926;BME280;37952;51.938;15.480;2023-06-14T14:32:29;99927.27;;;23.67;43.48
51926;BME280;37952;51.938;15.480;2023-06-14T14:35:32;99921.58;;;23.68;43.28
51926;BME280;37952;51.938;15.480;2023-06-14T14:38:35;99919.74;;;23.67;43.41
51926;BME280;37952;51.938;15.480;2023-06-14T14:41:38;99916.00;;;23.58;42.88
51926;BME280;37952;51.938;15.480;2023-06-14T14:44:44;99917.73;;;23.48;43.07
51926;BME280;37952;51.938;15.480;2023-06-14T14:47:47;99919.78;;;23.51;42.76
51926;BME280;37952;51.938;15.480;2023-06-14T14:50:50;99918.71;;;23.47;42.93
51926;BME280;37952;51.938;15.480;2023-06-14T14:53:52;99920.73;;;23.43;43.07
51926;BME280;37952;51.938;15.480;2023-06-14T14:56:57;99919.94;;;23.38;42.88
51926;BME280;37952;51.938;15.480;2023-06-14T15:00:00;99922.51;;;23.30;42.81
51926;BME280;37952;51.938;15.480;2023-06-14T15:03:03;99923.30;;;23.27;42.89
51926;BME280;37952;51.938;15.480;2023-06-14T15:06:06;99922.63;;;23.24;42.74
51926;BME280;37952;51.938;15.480;2023-06-14T15:09:08;99921.73;;;23.23;42.74
51926;BME280;37952;51.938;15.480;2023-06-14T15:12:11;99922.98;;;23.21;42.67
51926;BME280;37952;51.938;15.480;2023-06-14T15:15:14;99922.09;;;23.15;42.72
51926;BME280;37952;51.938;15.480;2023-06-14T15:18:16;99918.34;;;23.14;42.71
51926;BME280;37952;51.938;15.480;2023-06-14T15:21:19;99917.67;;;23.12;42.61
51926;BME280;37952;51.938;15.480;2023-06-14T15:24:22;99919.67;;;23.10;42.59
51926;BME280;37952;51.938;15.480;2023-06-14T15:27:43;99912.81;;;23.04;42.59
51926;BME280;37952;51.938;15.480;2023-06-14T15:30:46;99913.19;;;23.03;42.52
51926;BME280;37952;51.938;15.480;2023-06-14T15:33:49;99911.70;;;23.01;42.43
51926;BME280;37952;51.938;15.480;2023-06-14T15:36:51;99914.20;;;23.00;42.34
51926;BME280;37952;51.938;15.480;2023-06-14T15:39:54;99911.97;;;23.05;42.37
51926;BME280;37952;51.938;15.480;2023-06-14T15:42:57;99913.10;;;23.18;42.19
51926;BME280;37952;51.938;15.480;2023-06-14T15:45:59;99912.80;;;23.27;42.05
51926;BME280;37952;51.938;15.480;2023-06-14T15:49:09;99911.62;;;23.31;41.91
51926;BME280;37952;51.938;15.480;2023-06-14T15:52:13;99912.49;;;23.30;41.97
51926;BME280;37952;51.938;15.480;2023-06-14T15:55:15;99914.27;;;23.25;41.74
51926;BME280;37952;51.938;15.480;2023-06-14T15:58:18;99916.92;;;23.19;41.83
51926;BME280;37952;51.938;15.480;2023-06-14T16:01:22;99913.95;;;23.15;41.90
51926;BME280;37952;51.938;15.480;2023-06-14T16:04:27;99912.48;;;23.10;41.94
51926;BME280;37952;51.938;15.480;2023-06-14T16:07:31;99913.23;;;23.04;41.76
51926;BME280;37952;51.938;15.480;2023-06-14T16:10:34;99915.26;;;22.94;41.82
51926;BME280;37952;51.938;15.480;2023-06-14T16:13:38;99918.55;;;22.83;41.75